Historyczne dane pomiarowe

Dodano dane terminowe – wersja testowa.

Dane z okresu 1951-2019

Wersja bazy: 1.34 [2019-03-16, lista zmian], aktualizacja planowana na 2019-04-15

Dane meteo z obszaru Polski uzyskane na podstawie danych udostępnionych przez Instytut Meteorologii i Gospodarki Wodnej – Państwowy Instytut Badawczy.

 

Wybierz Datę:    

       

TemperaturaWilgotnośćWiatrCiśnienieOpadyŚniegCzas trwania zjawisk
 Stacja t tx tn tng RH VA  wxwx mslp ppp RRR   cm mm wxwxwxwxwxwxwx
1994-08-14 14.2 19.0 11.2 9.6-- 5.3 8.0---- 0.0------------
1994-08-13 17.6 23.3 14.4 11.2-- 6.0 5.7---- 1.3------------
1994-08-12 17.4 22.9 15.0 13.2-- 6.7 1.7---- 3.4------------
1994-08-11 17.2 22.5 12.0 9.1-- 7.7 1.3---- 6.4------------
1994-08-10 20.0 26.4 14.9 15.3-- 2.7 0.3---- 0.0------------
1994-08-09 17.7 22.6 16.0 13.2-- 7.7 2.7---- 12.2------------
1994-08-08 21.5 27.7 17.5 14.9-- 6.0 1.7---- 0.1------------
1994-08-07 24.5 30.4 19.0 14.3-- 3.3 1.7---- 1.5------------
1994-08-06 26.3 33.6 13.5 9.3-- 1.3 1.0---- 0.0------------
1994-08-05 25.3 33.7 13.9 10.7-- 0.3 0.0---- 0.0------------
1994-08-04 24.1 32.8 14.9 11.1-- 3.0 1.7---- 0.0------------
1994-08-03 24.1 29.1 15.1 11.4-- 4.3 0.0---- 0.0------------
1994-08-02 24.0 32.4 19.2 16.0-- 6.0 0.0---- 0.0------------
1994-08-01 26.9 36.2 15.6 12.1-- 2.7 0.7---- 0.0------------
1994-07-31 27.2 35.3 15.4 11.7-- 1.0 1.0---- 0.0------------
1994-07-30 27.2 35.3 15.4 11.1-- 1.0 1.0---- 0.0------------
1994-07-29 27.4 35.4 14.7 11.8-- 2.0 0.7---- 0.0------------
1994-07-28 27.4 35.3 14.4 10.1-- 2.3 0.0---- 0.0------------
1994-07-27 25.2 34.2 14.1 10.9-- 0.3 1.0---- 0.0------------
1994-07-26 24.8 34.3 13.2 9.9-- 1.3 0.0---- 0.0------------
1994-07-25 23.5 32.4 11.0 8.2-- 1.3 0.3---- 0.0------------
1994-07-24 23.4 30.8 9.9 7.2-- 1.0 0.7---- 0.0------------
1994-07-23 22.2 29.7 10.3 6.8-- 1.7 1.0---- 0.0------------
1994-07-22 20.0 27.7 9.8 6.3-- 0.3 1.7---- 0.0------------
1994-07-21 19.8 28.1 7.8 4.6-- 0.0 1.0---- 0.0------------
1994-07-20 17.3 24.8 7.0 3.4-- 0.7 2.3---- 0.0------------
1994-07-19 18.3 24.7 13.4 10.6-- 3.7 1.3---- 0.0------------
1994-07-18 21.4 26.4 18.0 15.8-- 3.3 2.0---- 0.0------------
1994-07-17 21.7 27.7 17.7 14.7-- 4.7 0.3---- 0.8------------
1994-07-16 23.6 31.1 11.8 8.9-- 2.3 1.7---- 0.0------------
1994-07-15 23.5 29.4 14.4 11.1-- 1.3 0.7---- 0.0------------
1994-07-14 23.4 30.8 12.8 9.6-- 1.7 1.0---- 0.0------------
1994-07-13 22.5 30.2 11.3 7.8-- 0.7 1.0---- 0.0------------
1994-07-12 22.0 28.9 13.0 10.1-- 1.7 3.0---- 0.0------------
1994-07-11 19.8 26.2 11.6 9.1-- 4.0 2.7---- 0.0------------
1994-07-10 17.1 24.7 12.3 11.2-- 4.0 1.7---- 2.5------------
1994-07-09 13.8 18.4 12.4 10.7-- 7.7 2.3---- 2.5------------
1994-07-08 17.2 23.2 11.8 11.6-- 4.7 4.0---- 2.1------------
1994-07-07 20.3 27.3 10.0 7.2-- 2.0 1.3---- 1.6------------
1994-07-06 18.2 26.0 7.2 5.4-- 3.0 0.7---- 0.0------------
1994-07-05 19.0 26.3 8.8 6.3-- 2.7 0.3---- 0.0------------
1994-07-04 20.0 26.7 8.3 5.4-- 0.3 1.0---- 0.0------------
1994-07-03 18.3 25.5 7.1 4.3-- 0.7 0.7---- 0.0------------
1994-07-02 17.5 23.3 7.8 4.9-- 0.0 0.7---- 0.0------------
1994-07-01 18.0 23.3 10.4 7.0-- 0.7 1.0---- 0.0------------
1994-06-30 21.8 26.8 16.2 13.2-- 5.0 3.3---- 4.4------------
1994-06-29 23.7 30.8 13.9 11.0-- 0.3 0.7---- 0.0------------
1994-06-28 22.7 28.7 15.7 11.1-- 0.0 0.7---- 0.0------------
1994-06-27 25.3 31.9 18.2 14.4-- 1.0 1.7---- 0.0------------
1994-06-26 21.7 30.2 9.6 8.6-- 1.0 0.7---- 0.0------------
1994-06-25 15.7 22.8 4.7 1.1-- 0.3 0.0---- 0.0------------
1994-06-24 14.4 19.5 7.3 5.4-- 1.0 7.3---- 0.0------------
1994-06-23 17.0 21.3 14.9 13.6-- 1.3 10.0---- 0.0------------
1994-06-22 18.7 25.5 7.8 4.9-- 5.7 3.0---- 0.0------------
1994-06-21 14.4 20.3 5.5 2.7-- 1.3 1.7---- 0.0------------
1994-06-20 16.2 19.8 14.2 11.6-- 3.3 5.3---- 0.0------------
1994-06-19 16.0 22.2 10.8 10.1-- 5.7 2.0---- 0.0------------
1994-06-18 12.6 19.1 2.8 -0.3-- 4.0 3.0---- 6.1------------
1994-06-17 11.0 15.3 8.3 7.7-- 6.0 5.7---- 0.0------------
1994-06-16 10.8 16.0 6.0 2.1-- 6.7 5.3---- 0.5------------
338.5 ms

 

Źródłem pochodzenia danych jest Instytut Meteorologii i Gospodarki Wodnej – Państwowy Instytut Badawczy. Dane Instytutu Meteorologii i Gospodarki Wodnej – Państwowego Instytutu Badawczego zostały przetworzone.

Dane źródłowe można odnaleźć na stronie https://dane.imgw.pl